Terminal Aerodrome Forecast
Issued by NWS Cleveland, OH

Home | Current Version | Previous Version | Text Only | Print | Product List | Glossary On
Versions: 1 2 3 4 5 6 7 8 9 10 11 12 13 14 15 16 17 18 19 20 21 22 23
000
FTUS41 KCLE 272328
TAFMFD
TAF
KMFD 272328Z 2800/2824 04007KT P6SM BKN120
     FM280400 VRB03KT P6SM SCT045 BKN120
     FM280800 VRB03KT P6SM BKN045
      TEMPO 2808/2809 OVC035
     FM280900 14004KT 5SM BR SCT008 BKN015
      TEMPO 2809/2813 3SM BR BKN008
     FM281400 16005KT P6SM VCSH BKN035
     FM281600 17008KT P6SM -SHRA VCTS OVC035CB
     FM281800 19010KT P6SM VCTS OVC050CB=

USA.gov is the U.S. government's official web portal to all federal, state and local government web resources and services.